createdAt,value
2023-05-17T00:00:01.403Z,6.8
2023-05-17T00:01:00.991Z,6.9
2023-05-17T00:02:01.569Z,6.9
2023-05-17T00:03:01.188Z,6.9
2023-05-17T00:04:00.796Z,7
2023-05-17T00:05:01.695Z,7.2
2023-05-17T00:06:00.996Z,7
2023-05-17T00:07:01.580Z,6.9
2023-05-17T00:08:01.177Z,6.8
2023-05-17T00:09:00.793Z,6.8
2023-05-17T00:10:01.386Z,6.9
2023-05-17T00:11:00.991Z,6.8
2023-05-17T00:12:01.584Z,6.8
2023-05-17T00:13:01.176Z,6.7
2023-05-17T00:14:00.793Z,6.7
2023-05-17T00:15:01.341Z,6.8
2023-05-17T00:16:00.918Z,6.8
2023-05-17T00:17:01.495Z,6.8
2023-05-17T00:18:01.224Z,6.8
2023-05-17T00:19:01.726Z,6.8
2023-05-17T00:20:01.367Z,6.8
2023-05-17T00:21:00.939Z,6.7
2023-05-17T00:22:01.496Z,6.8
2023-05-17T00:23:01.090Z,6.8
2023-05-17T00:24:00.690Z,6.9
2023-05-17T00:25:01.267Z,7
2023-05-17T00:26:00.868Z,7.1
2023-05-17T00:27:01.445Z,7
2023-05-17T00:28:01.032Z,7.1
2023-05-17T00:29:01.618Z,7.1
2023-05-17T00:30:01.250Z,7.1
2023-05-17T00:31:00.840Z,7.1
2023-05-17T00:32:01.418Z,7.1
2023-05-17T00:33:01.012Z,7.1
2023-05-17T00:34:01.571Z,7.1
2023-05-17T00:35:01.241Z,7.1
2023-05-17T00:36:00.766Z,7
2023-05-17T00:37:01.434Z,7
2023-05-17T00:38:00.966Z,7
2023-05-17T00:39:01.537Z,7
2023-05-17T00:40:01.124Z,7
2023-05-17T00:41:00.748Z,7
2023-05-17T00:42:01.292Z,7
2023-05-17T00:43:00.875Z,6.9
2023-05-17T00:44:01.452Z,6.9
2023-05-17T00:45:01.037Z,6.9
2023-05-17T00:46:01.633Z,6.9
2023-05-17T00:47:01.243Z,6.9
2023-05-17T00:48:00.847Z,6.8
2023-05-17T00:49:01.406Z,6.8
2023-05-17T00:50:00.983Z,6.8
2023-05-17T00:51:01.573Z,6.8
2023-05-17T00:52:01.178Z,6.8
2023-05-17T00:53:00.975Z,6.8
2023-05-17T00:54:01.318Z,6.8
2023-05-17T00:55:00.908Z,6.7
2023-05-17T00:56:01.501Z,6.7
2023-05-17T00:57:01.110Z,6.5
2023-05-17T00:58:01.666Z,6.6
2023-05-17T00:59:01.264Z,6.6
2023-05-17T01:00:00.843Z,6.6
2023-05-17T01:01:01.437Z,6.5
2023-05-17T01:02:01.029Z,6.5
2023-05-17T01:03:01.723Z,6.5
2023-05-17T01:04:01.394Z,6.4
2023-05-17T01:05:00.925Z,6.4
2023-05-17T01:06:01.416Z,6.5
2023-05-17T01:07:01.021Z,6.4
2023-05-17T01:08:01.589Z,6.5
2023-05-17T01:09:01.359Z,6.5
2023-05-17T01:10:00.755Z,6.4
2023-05-17T01:11:01.338Z,6.3
2023-05-17T01:12:00.937Z,6.3
2023-05-17T01:13:01.505Z,6.3
2023-05-17T01:14:01.250Z,6.3
2023-05-17T01:15:00.737Z,6.3
2023-05-17T01:16:01.311Z,6.3
2023-05-17T01:17:00.908Z,6.3
2023-05-17T01:18:01.526Z,6.3
2023-05-17T01:19:01.268Z,6.3
2023-05-17T01:20:00.932Z,6.3
2023-05-17T01:21:01.286Z,6.2
2023-05-17T01:22:00.900Z,6.3
2023-05-17T01:23:01.437Z,6.2
2023-05-17T01:24:01.018Z,6.3
2023-05-17T01:25:01.680Z,6.3
2023-05-17T01:26:01.270Z,6.3
2023-05-17T01:27:00.853Z,6.3
2023-05-17T01:28:01.431Z,6.3
2023-05-17T01:29:01.011Z,6.3
2023-05-17T01:30:01.616Z,6.2
2023-05-17T01:31:01.196Z,6.1
2023-05-17T01:32:00.801Z,6.1
2023-05-17T01:33:01.453Z,6.2
2023-05-17T01:34:01.122Z,6.1
2023-05-17T01:35:01.612Z,6.2
2023-05-17T01:36:01.195Z,6.4
2023-05-17T01:37:00.817Z,6.5
2023-05-17T01:38:01.360Z,6.4
2023-05-17T01:39:00.936Z,6.3
2023-05-17T01:40:01.517Z,6.5
2023-05-17T01:41:01.207Z,6.5
2023-05-17T01:42:00.699Z,6.4
2023-05-17T01:43:01.278Z,6.4
2023-05-17T01:44:00.867Z,6.3
2023-05-17T01:45:01.459Z,6.3
2023-05-17T01:46:01.053Z,6.4
2023-05-17T01:47:01.641Z,6.3
2023-05-17T01:48:01.274Z,6.3
2023-05-17T01:49:00.970Z,6.3
2023-05-17T01:50:01.438Z,6.3
2023-05-17T01:51:01.030Z,6.3
2023-05-17T01:52:01.604Z,6.3
2023-05-17T01:53:01.206Z,6.3
2023-05-17T01:54:00.798Z,6.3
2023-05-17T01:55:01.379Z,6.3
2023-05-17T01:56:01.108Z,6.3
2023-05-17T01:57:01.654Z,6.2
2023-05-17T01:58:01.215Z,6.3
2023-05-17T01:59:00.801Z,6.2
2023-05-17T02:00:01.350Z,6.3
2023-05-17T02:01:00.943Z,6.3
2023-05-17T02:02:01.511Z,6.3
2023-05-17T02:03:01.150Z,6.3
2023-05-17T02:04:01.758Z,6.3
2023-05-17T02:05:01.407Z,6.3
2023-05-17T02:06:00.911Z,6.3
2023-05-17T02:07:01.492Z,6.5
2023-05-17T02:08:01.076Z,6.5
2023-05-17T02:09:01.688Z,6.4
2023-05-17T02:10:01.312Z,6.3
2023-05-17T02:11:00.902Z,6.4
2023-05-17T02:12:01.498Z,6.2
2023-05-17T02:13:01.185Z,6.3
2023-05-17T02:14:00.679Z,6.3
2023-05-17T02:15:01.268Z,6.3
2023-05-17T02:16:00.907Z,6.3
2023-05-17T02:17:01.482Z,6.3
2023-05-17T02:18:01.151Z,6.2
2023-05-17T02:19:01.690Z,6.3
2023-05-17T02:20:01.398Z,6.3
2023-05-17T02:21:00.890Z,6.3
2023-05-17T02:22:01.497Z,6.2
2023-05-17T02:23:01.094Z,6.2
2023-05-17T02:24:01.680Z,6.3
2023-05-17T02:25:01.270Z,6.2
2023-05-17T02:26:00.865Z,6.1
2023-05-17T02:27:01.482Z,6.2
2023-05-17T02:28:01.067Z,6.1
2023-05-17T02:29:01.762Z,6.1
2023-05-17T02:30:01.347Z,6.1
2023-05-17T02:31:00.864Z,6.1
2023-05-17T02:32:01.463Z,6.1
2023-05-17T02:33:01.167Z,6.1
2023-05-17T02:34:01.651Z,6.2
2023-05-17T02:35:01.298Z,6.2
2023-05-17T02:36:00.867Z,6.1
2023-05-17T02:37:01.456Z,5.9
2023-05-17T02:38:01.042Z,6
2023-05-17T02:39:01.634Z,5.9
2023-05-17T02:40:01.214Z,5.9
2023-05-17T02:41:00.795Z,5.9
2023-05-17T02:42:01.377Z,5.9
2023-05-17T02:43:00.983Z,5.9
2023-05-17T02:44:01.557Z,5.8
2023-05-17T02:45:01.239Z,5.9
2023-05-17T02:46:00.719Z,5.9
2023-05-17T02:47:01.304Z,6
2023-05-17T02:48:00.955Z,6
2023-05-17T02:49:01.489Z,6.1
2023-05-17T02:50:01.074Z,6
2023-05-17T02:51:01.655Z,6.1
2023-05-17T02:52:01.386Z,6.2
2023-05-17T02:53:00.920Z,6.2
2023-05-17T02:54:01.476Z,6.2
2023-05-17T02:55:01.080Z,6.2
2023-05-17T02:56:01.662Z,6.2
2023-05-17T02:57:01.258Z,6.3
2023-05-17T02:58:00.871Z,6.3
2023-05-17T02:59:01.434Z,6.3
2023-05-17T03:00:01.025Z,6.3
2023-05-17T03:01:01.838Z,6.3
2023-05-17T03:02:01.419Z,6.2
2023-05-17T03:03:00.889Z,6.1
2023-05-17T03:04:01.612Z,6.3
2023-05-17T03:05:01.084Z,6.3
2023-05-17T03:06:01.666Z,6.3
2023-05-17T03:07:01.253Z,6.3
2023-05-17T03:08:00.840Z,6.3
2023-05-17T03:09:01.432Z,6.4
2023-05-17T03:10:01.027Z,6.3
2023-05-17T03:11:01.596Z,6.4
2023-05-17T03:12:01.187Z,6.5
2023-05-17T03:13:00.771Z,6.5
2023-05-17T03:14:01.357Z,6.7
2023-05-17T03:15:00.983Z,6.6
2023-05-17T03:16:01.530Z,6.7
2023-05-17T03:17:01.394Z,6.7
2023-05-17T03:18:00.832Z,6.8
2023-05-17T03:19:01.454Z,6.8
2023-05-17T03:20:01.018Z,6.8
2023-05-17T03:21:01.507Z,6.8
2023-05-17T03:22:01.114Z,6.8
2023-05-17T03:23:01.676Z,6.8
2023-05-17T03:24:01.263Z,6.9
2023-05-17T03:25:00.866Z,7
2023-05-17T03:26:01.440Z,7
2023-05-17T03:27:01.021Z,7.1
2023-05-17T03:28:01.596Z,7.1
2023-05-17T03:29:01.178Z,7.2
2023-05-17T03:30:00.769Z,7.2
2023-05-17T03:31:01.444Z,7.3
2023-05-17T03:32:01.017Z,7.3
2023-05-17T03:33:01.772Z,7.4
2023-05-17T03:34:01.287Z,7.3
2023-05-17T03:35:00.816Z,7.4
2023-05-17T03:36:01.410Z,7.4
2023-05-17T03:37:01.009Z,7.4
2023-05-17T03:38:01.610Z,7.5
2023-05-17T03:39:01.198Z,7.5
2023-05-17T03:40:00.793Z,7.5
2023-05-17T03:41:01.352Z,7.6
2023-05-17T03:42:00.938Z,7.6
2023-05-17T03:43:01.527Z,7.6
2023-05-17T03:44:01.109Z,7.7
2023-05-17T03:45:00.690Z,7.7
2023-05-17T03:46:01.272Z,7.7
2023-05-17T03:47:00.865Z,7.6
2023-05-17T03:48:01.479Z,7.7
2023-05-17T03:49:01.394Z,7.6
2023-05-17T03:50:01.651Z,7.7
2023-05-17T03:51:01.240Z,7.7
2023-05-17T03:52:00.829Z,7.7
2023-05-17T03:53:01.438Z,7.7
2023-05-17T03:54:01.104Z,7.7
2023-05-17T03:55:01.620Z,7.7
2023-05-17T03:56:01.243Z,7.7
2023-05-17T03:57:00.822Z,7.7
2023-05-17T03:58:01.404Z,7.7
2023-05-17T03:59:01.003Z,7.7
2023-05-17T04:00:01.571Z,7.8
2023-05-17T04:01:01.153Z,7.7
2023-05-17T04:02:00.734Z,7.8
2023-05-17T04:03:01.363Z,7.7
2023-05-17T04:04:01.027Z,7.7
2023-05-17T04:05:01.697Z,7.8
2023-05-17T04:06:01.192Z,7.8
2023-05-17T04:07:00.777Z,7.8
2023-05-17T04:08:01.358Z,7.8
2023-05-17T04:09:00.979Z,7.8
2023-05-17T04:10:01.533Z,7.9
2023-05-17T04:11:01.126Z,7.9
2023-05-17T04:12:00.710Z,7.9
2023-05-17T04:13:01.281Z,7.9
2023-05-17T04:14:00.879Z,7.9
2023-05-17T04:15:01.474Z,7.9
2023-05-17T04:16:01.066Z,7.9
2023-05-17T04:17:01.640Z,8
2023-05-17T04:18:01.276Z,8
2023-05-17T04:19:00.980Z,8
2023-05-17T04:20:01.476Z,8.1
2023-05-17T04:21:01.279Z,8
2023-05-17T04:22:01.649Z,8
2023-05-17T04:23:01.233Z,8
2023-05-17T04:24:00.815Z,8
2023-05-17T04:25:01.444Z,8.1
2023-05-17T04:26:01.049Z,8
2023-05-17T04:27:03.441Z,8.1
2023-05-17T04:28:01.163Z,8.2
2023-05-17T04:29:00.740Z,8.3
2023-05-17T04:30:01.357Z,8.3
2023-05-17T04:31:00.955Z,8.4
2023-05-17T04:32:01.538Z,8.5
2023-05-17T04:33:01.200Z,8.4
2023-05-17T04:34:00.966Z,8.5
2023-05-17T04:35:01.318Z,8.5
2023-05-17T04:36:01.123Z,8.5
2023-05-17T04:37:01.597Z,8.5
2023-05-17T04:38:01.164Z,8.6
2023-05-17T04:39:00.719Z,8.5
2023-05-17T04:40:01.304Z,8.6
2023-05-17T04:41:00.918Z,8.6
2023-05-17T04:42:01.538Z,8.7
2023-05-17T04:43:01.165Z,8.7
2023-05-17T04:44:00.749Z,8.6
2023-05-17T04:45:01.412Z,8.5
2023-05-17T04:46:00.978Z,8.5
2023-05-17T04:47:01.959Z,8.6
2023-05-17T04:48:01.236Z,8.5
2023-05-17T04:49:00.856Z,8.6
2023-05-17T04:50:01.382Z,8.7
2023-05-17T04:51:00.972Z,8.8
2023-05-17T04:52:02.214Z,8.8
2023-05-17T04:53:01.098Z,8.9
2023-05-17T04:54:01.704Z,9
2023-05-17T04:55:01.305Z,9.1
2023-05-17T04:56:00.897Z,9
2023-05-17T04:57:01.514Z,9.1
2023-05-17T04:58:01.107Z,9.1
2023-05-17T04:59:01.689Z,9.2
2023-05-17T05:00:01.281Z,9.3
2023-05-17T05:01:00.874Z,9.3
2023-05-17T05:02:01.477Z,9.3
2023-05-17T05:03:01.112Z,9.3
2023-05-17T05:04:01.796Z,9.3
2023-05-17T05:05:01.586Z,9.3
2023-05-17T05:06:00.866Z,9.3
2023-05-17T05:07:01.450Z,9.2
2023-05-17T05:08:01.362Z,9.2
2023-05-17T05:09:01.847Z,9.1
2023-05-17T05:10:01.508Z,9.2
2023-05-17T05:11:00.861Z,9.2
2023-05-17T05:12:01.605Z,9.2
2023-05-17T05:13:01.118Z,9.2
2023-05-17T05:14:01.695Z,9.2
2023-05-17T05:15:01.429Z,9.2
2023-05-17T05:16:00.909Z,9.2
2023-05-17T05:17:01.496Z,9.2
2023-05-17T05:18:01.117Z,9.3
2023-05-17T05:19:01.903Z,9.3
2023-05-17T05:20:01.766Z,9.3
2023-05-17T05:21:00.894Z,9.3
2023-05-17T05:22:01.552Z,9.3
2023-05-17T05:23:01.117Z,9.4
2023-05-17T05:24:01.698Z,9.3
2023-05-17T05:25:01.499Z,9.3
2023-05-17T05:26:00.927Z,9.3
2023-05-17T05:27:01.508Z,9.5
2023-05-17T05:28:01.095Z,9.4
2023-05-17T05:29:01.684Z,9.6
2023-05-17T05:30:01.311Z,9.6
2023-05-17T05:31:00.928Z,9.6
2023-05-17T05:32:01.493Z,9.5
2023-05-17T05:33:01.113Z,9.6
2023-05-17T05:34:01.661Z,9.7
2023-05-17T05:35:01.282Z,9.6
2023-05-17T05:36:00.876Z,9.5
2023-05-17T05:37:01.444Z,9.6
2023-05-17T05:38:01.040Z,9.5
2023-05-17T05:39:01.612Z,9.6
2023-05-17T05:40:01.221Z,9.5
2023-05-17T05:41:00.990Z,9.6
2023-05-17T05:42:01.380Z,9.5
2023-05-17T05:43:00.961Z,9.7
2023-05-17T05:44:01.543Z,9.7
2023-05-17T05:45:01.146Z,9.8
2023-05-17T05:46:00.718Z,9.8
2023-05-17T05:47:01.290Z,9.8
2023-05-17T05:48:01.008Z,9.8
2023-05-17T05:49:01.506Z,9.8
2023-05-17T05:50:01.135Z,9.8
2023-05-17T05:51:01.691Z,9.8
2023-05-17T05:52:01.295Z,9.8
2023-05-17T05:53:10.759Z,9.9
2023-05-17T05:54:01.423Z,9.9
2023-05-17T05:55:01.036Z,9.9
2023-05-17T05:56:01.618Z,9.9
2023-05-17T05:57:01.312Z,10
2023-05-17T05:58:00.803Z,10
2023-05-17T05:59:01.365Z,10
2023-05-17T06:00:00.960Z,10.1
2023-05-17T06:01:02.879Z,10.1
2023-05-17T06:02:01.106Z,10.1
2023-05-17T06:03:01.700Z,10.1
2023-05-17T06:04:01.298Z,10.1
2023-05-17T06:05:00.881Z,10.2
2023-05-17T06:06:01.535Z,10.3
2023-05-17T06:07:01.212Z,10.2
2023-05-17T06:08:01.722Z,10.3
2023-05-17T06:09:01.321Z,10.3
2023-05-17T06:10:00.918Z,10.3
2023-05-17T06:11:01.501Z,10.2
2023-05-17T06:12:01.117Z,10.2
2023-05-17T06:13:01.790Z,10.3
2023-05-17T06:14:01.381Z,10.3
2023-05-17T06:15:00.950Z,10.2
2023-05-17T06:16:01.502Z,10.2
2023-05-17T06:17:01.099Z,10.3
2023-05-17T06:18:01.812Z,10.3
2023-05-17T06:19:01.589Z,10.2
2023-05-17T06:20:01.039Z,10.1
2023-05-17T06:21:01.502Z,10.1
2023-05-17T06:22:01.165Z,9.9
2023-05-17T06:23:01.671Z,10.1
2023-05-17T06:24:02.834Z,10.2
2023-05-17T06:25:00.826Z,10.3
2023-05-17T06:26:01.500Z,10.2
2023-05-17T06:27:01.107Z,10.3
2023-05-17T06:28:01.668Z,10.3
2023-05-17T06:29:01.363Z,10.3
2023-05-17T06:30:00.906Z,10.3
2023-05-17T06:31:01.485Z,10.4
2023-05-17T06:32:01.062Z,10.5
2023-05-17T06:33:01.776Z,10.6
2023-05-17T06:34:01.462Z,10.6
2023-05-17T06:35:00.900Z,10.6
2023-05-17T06:37:01.047Z,10.8
2023-05-17T06:38:01.637Z,10.7
2023-05-17T06:39:01.219Z,10.6
2023-05-17T06:40:09.869Z,10.6
2023-05-17T06:41:01.332Z,10.5
2023-05-17T06:42:00.910Z,10.6
2023-05-17T06:43:01.506Z,10.8
2023-05-17T06:44:01.113Z,10.8
2023-05-17T06:45:01.841Z,10.9
2023-05-17T06:46:01.457Z,11
2023-05-17T06:47:00.948Z,11
2023-05-17T06:48:01.703Z,11.1
2023-05-17T06:49:01.272Z,11.3
2023-05-17T06:50:00.778Z,11.3
2023-05-17T06:51:01.361Z,11.5
2023-05-17T06:52:00.941Z,11.4
2023-05-17T06:53:01.542Z,11.5
2023-05-17T06:55:01.671Z,11.8
2023-05-17T06:56:01.270Z,11.8
2023-05-17T06:57:00.851Z,11.8
2023-05-17T06:58:01.441Z,11.9
2023-05-17T06:59:01.028Z,11.9
2023-05-17T07:00:01.639Z,11.8
2023-05-17T07:01:01.336Z,11.9
2023-05-17T07:02:00.817Z,11.8
2023-05-17T07:03:01.547Z,11.6
2023-05-17T07:04:01.116Z,11.8
2023-05-17T07:05:01.754Z,11.7
2023-05-17T07:06:01.430Z,11.9
2023-05-17T07:07:00.872Z,11.9
2023-05-17T07:08:01.469Z,11.9
2023-05-17T07:09:01.059Z,12
2023-05-17T07:10:01.694Z,11.9
2023-05-17T07:11:01.299Z,11.8
2023-05-17T07:12:00.881Z,11.6
2023-05-17T07:13:01.470Z,11.3
2023-05-17T07:14:01.058Z,11.1
2023-05-17T07:15:01.653Z,11.1
2023-05-17T07:16:01.269Z,11.2
2023-05-17T07:17:00.951Z,11.3
2023-05-17T07:18:01.492Z,11.8
2023-05-17T07:19:01.138Z,11.9
2023-05-17T07:20:01.802Z,12.2
2023-05-17T07:21:01.496Z,12.5
2023-05-17T07:22:00.944Z,12.2
2023-05-17T07:23:01.589Z,12.1
2023-05-17T07:24:01.163Z,12
2023-05-17T07:25:00.747Z,12.2
2023-05-17T07:26:01.335Z,12
2023-05-17T07:27:00.939Z,12
2023-05-17T07:28:01.502Z,11.8
2023-05-17T07:29:01.093Z,11.6
2023-05-17T07:30:01.695Z,11.6
2023-05-17T07:31:01.285Z,11.7
2023-05-17T07:32:00.886Z,11.7
2023-05-17T07:33:01.622Z,11.8
2023-05-17T07:34:01.110Z,11.8
2023-05-17T07:35:01.681Z,11.6
2023-05-17T07:36:01.315Z,11.5
2023-05-17T07:37:00.913Z,11.4
2023-05-17T07:38:01.526Z,11.3
2023-05-17T07:39:01.123Z,11.2
2023-05-17T07:40:02.709Z,11.1
2023-05-17T07:41:01.301Z,11
2023-05-17T07:42:01.579Z,11.2
2023-05-17T07:43:00.969Z,11.2
2023-05-17T07:44:01.572Z,11.2
2023-05-17T07:45:01.713Z,11.3
2023-05-17T07:46:01.299Z,11.3
2023-05-17T07:47:00.933Z,11.3
2023-05-17T07:48:01.537Z,11.3
2023-05-17T07:49:01.392Z,11.4
2023-05-17T07:50:01.719Z,11.3
2023-05-17T07:51:01.303Z,11.3
2023-05-17T07:52:00.890Z,11.3
2023-05-17T07:53:01.492Z,11.3
2023-05-17T07:54:01.077Z,11.3
2023-05-17T07:55:01.657Z,11.4
2023-05-17T07:56:01.243Z,11.3
2023-05-17T07:57:00.829Z,11.4
2023-05-17T07:58:01.444Z,11.6
2023-05-17T07:59:01.082Z,11.6
2023-05-17T08:00:01.663Z,11.8
2023-05-17T08:01:01.249Z,11.9
2023-05-17T08:02:00.829Z,12
2023-05-17T08:03:01.483Z,11.8
2023-05-17T08:04:01.121Z,11.9
2023-05-17T08:05:01.903Z,12
2023-05-17T08:06:01.551Z,11.9
2023-05-17T08:07:00.918Z,11.9
2023-05-17T08:08:01.477Z,11.7
2023-05-17T08:09:01.087Z,11.4
2023-05-17T08:10:01.670Z,11.5
2023-05-17T08:11:01.265Z,11.6
2023-05-17T08:12:00.847Z,11.6
2023-05-17T08:13:01.428Z,11.5
2023-05-17T08:14:01.037Z,11.5
2023-05-17T08:15:01.639Z,11.6
2023-05-17T08:16:09.206Z,11.5
2023-05-17T08:17:00.805Z,11.5
2023-05-17T08:18:03.818Z,11.5
2023-05-17T08:19:01.099Z,11.7
2023-05-17T08:20:01.655Z,11.7
2023-05-17T08:21:01.349Z,11.9
2023-05-17T08:22:00.889Z,12.1
2023-05-17T08:23:01.481Z,12.3
2023-05-17T08:24:02.753Z,12.5
2023-05-17T08:25:01.665Z,12.6
2023-05-17T08:26:01.266Z,12.6
2023-05-17T08:27:00.866Z,12.5
2023-05-17T08:28:01.433Z,12
2023-05-17T08:29:01.024Z,12
2023-05-17T08:30:01.602Z,11.9
2023-05-17T08:31:01.212Z,12
2023-05-17T08:32:00.788Z,11.9
2023-05-17T08:33:01.434Z,11.9
2023-05-17T08:34:01.082Z,11.9
2023-05-17T08:35:01.601Z,12
2023-05-17T08:36:01.193Z,12.1
2023-05-17T08:37:00.812Z,12.3
2023-05-17T08:38:01.361Z,12.3
2023-05-17T08:39:00.972Z,12.3
2023-05-17T08:40:01.566Z,12.2
2023-05-17T08:41:01.202Z,12.3
2023-05-17T08:42:00.788Z,12.3
2023-05-17T08:43:01.367Z,12.3
2023-05-17T08:44:01.000Z,12.2
2023-05-17T08:45:01.540Z,12.2
2023-05-17T08:46:01.124Z,12.2
2023-05-17T08:47:01.706Z,12.2
2023-05-17T08:48:01.332Z,12.2
2023-05-17T08:49:00.993Z,12.4
2023-05-17T08:50:01.538Z,12.7
2023-05-17T08:51:01.129Z,12.9
2023-05-17T08:52:01.715Z,13.1
2023-05-17T08:53:01.348Z,13.3
2023-05-17T08:54:00.971Z,13.5
2023-05-17T08:55:01.541Z,13.8
2023-05-17T08:56:01.153Z,13.5
2023-05-17T08:57:01.707Z,13.2
2023-05-17T08:58:01.298Z,13
2023-05-17T08:59:00.902Z,12.8
2023-05-17T09:00:01.498Z,12.6
2023-05-17T09:01:01.106Z,12.6
2023-05-17T09:02:01.688Z,12.5
2023-05-17T09:03:01.324Z,12.4
2023-05-17T09:04:00.946Z,12.4
2023-05-17T09:05:01.599Z,12.5
2023-05-17T09:06:01.242Z,12.4
2023-05-17T09:07:00.754Z,12.4
2023-05-17T09:08:01.337Z,12.6
2023-05-17T09:09:01.000Z,12.8
2023-05-17T09:10:01.510Z,13.3
2023-05-17T09:11:01.106Z,13.4
2023-05-17T09:12:01.694Z,13.3
2023-05-17T09:13:01.276Z,13.1
2023-05-17T09:14:00.881Z,13
2023-05-17T09:15:01.470Z,13.2
2023-05-17T09:16:01.070Z,13.4
2023-05-17T09:17:01.666Z,13.4
2023-05-17T09:18:01.282Z,13.4
2023-05-17T09:19:00.901Z,13.1
2023-05-17T09:20:01.475Z,13.2
2023-05-17T09:21:01.096Z,13.3
2023-05-17T09:22:01.670Z,13.3
2023-05-17T09:23:01.249Z,13.4
2023-05-17T09:24:06.799Z,13.4
2023-05-17T09:25:01.518Z,13.8
2023-05-17T09:26:01.090Z,14.1
2023-05-17T09:27:01.651Z,14.3
2023-05-17T09:28:01.242Z,14.3
2023-05-17T09:29:00.823Z,14
2023-05-17T09:30:01.409Z,13.9
2023-05-17T09:31:01.012Z,13.8
2023-05-17T09:32:01.581Z,13.8
2023-05-17T09:33:01.163Z,13.5
2023-05-17T09:34:00.763Z,13
2023-05-17T09:35:01.336Z,12.9
2023-05-17T09:36:00.946Z,13.2
2023-05-17T09:37:01.533Z,13.6
2023-05-17T09:38:01.119Z,13.3
2023-05-17T09:39:01.714Z,13.4
2023-05-17T09:40:01.307Z,13.3
2023-05-17T09:41:01.072Z,13.1
2023-05-17T09:42:01.498Z,12.7
2023-05-17T09:43:01.093Z,12.7
2023-05-17T09:44:01.668Z,12.9
2023-05-17T09:45:01.261Z,13.1
2023-05-17T09:46:00.873Z,13.1
2023-05-17T09:47:01.451Z,13.1
2023-05-17T09:48:01.074Z,13.4
2023-05-17T09:49:01.721Z,13.8
2023-05-17T09:50:01.276Z,13.9
2023-05-17T09:51:00.882Z,14.1
2023-05-17T09:52:01.457Z,14.5
2023-05-17T09:53:01.064Z,14.5
2023-05-17T09:54:01.628Z,14.4
2023-05-17T09:55:01.227Z,14.2
2023-05-17T09:56:00.797Z,13.8
2023-05-17T09:57:01.479Z,13.6
2023-05-17T09:58:01.040Z,13.2
2023-05-17T09:59:01.623Z,13.3
2023-05-17T10:00:01.204Z,13.3
2023-05-17T10:01:00.799Z,13.3
2023-05-17T10:02:01.397Z,13.3
2023-05-17T10:03:01.045Z,13.3
2023-05-17T10:04:01.631Z,13.4
2023-05-17T10:05:01.222Z,13.4
2023-05-17T10:06:00.789Z,13.4
2023-05-17T10:07:01.372Z,13.3
2023-05-17T10:08:00.981Z,13.3
2023-05-17T10:09:01.537Z,13.3
2023-05-17T10:10:01.136Z,13.4
2023-05-17T10:11:01.706Z,13.7
2023-05-17T10:12:01.294Z,13.8
2023-05-17T10:13:00.933Z,14.1
2023-05-17T10:14:01.461Z,14.3
2023-05-17T10:15:01.095Z,14
2023-05-17T10:16:01.634Z,13.9
2023-05-17T10:17:01.247Z,13.5
2023-05-17T10:18:00.867Z,13.3
2023-05-17T10:19:01.568Z,13.1
2023-05-17T10:20:01.173Z,13.2
2023-05-17T10:21:01.635Z,13.3
2023-05-17T10:22:11.380Z,13.4
2023-05-17T10:23:00.776Z,13.7
2023-05-17T10:24:01.399Z,13.7
2023-05-17T10:25:01.091Z,13.7
2023-05-17T10:26:01.575Z,13.5
2023-05-17T10:27:01.162Z,13.3
2023-05-17T10:28:01.743Z,13.4
2023-05-17T10:29:01.384Z,13.6
2023-05-17T10:30:00.972Z,13.6
2023-05-17T10:31:01.548Z,13.9
2023-05-17T10:32:01.133Z,14.2
2023-05-17T10:33:01.815Z,14.1
2023-05-17T10:34:01.586Z,14.3
2023-05-17T10:35:10.109Z,14.3
2023-05-17T10:36:01.509Z,14.5
2023-05-17T10:37:01.096Z,14.6
2023-05-17T10:38:01.676Z,14.3
2023-05-17T10:39:01.287Z,14.2
2023-05-17T10:40:00.861Z,14.1
2023-05-17T10:41:02.242Z,14
2023-05-17T10:42:13.230Z,14.1
2023-05-17T10:43:01.480Z,14
2023-05-17T10:44:01.074Z,13.8
2023-05-17T10:45:01.717Z,13.2
2023-05-17T10:46:01.305Z,12.9
2023-05-17T10:47:00.887Z,12.6
2023-05-17T10:48:01.543Z,12.8
2023-05-17T10:49:01.265Z,13
2023-05-17T10:50:01.738Z,13.4
2023-05-17T10:51:01.968Z,13.3
2023-05-17T10:52:01.743Z,13.1
2023-05-17T10:53:01.333Z,13.2
2023-05-17T10:54:00.914Z,13.5
2023-05-17T10:55:01.495Z,13.8
2023-05-17T10:56:01.099Z,13.7
2023-05-17T10:57:01.658Z,13.6
2023-05-17T10:58:01.243Z,13.7
2023-05-17T10:59:00.826Z,14
2023-05-17T11:00:01.419Z,13.9
2023-05-17T11:01:01.077Z,14.3
2023-05-17T11:02:01.596Z,14.3
2023-05-17T11:03:01.217Z,14.4
2023-05-17T11:04:00.771Z,14.6
2023-05-17T11:05:01.394Z,14.6
2023-05-17T11:06:01.017Z,14.5
2023-05-17T11:07:03.810Z,14
2023-05-17T11:08:01.099Z,13.9
2023-05-17T11:09:01.681Z,13.6
2023-05-17T11:10:01.279Z,13.3
2023-05-17T11:11:00.879Z,13.1
2023-05-17T11:12:01.446Z,13
2023-05-17T11:13:01.037Z,12.7
2023-05-17T11:14:01.616Z,13.2
2023-05-17T11:15:01.206Z,13.3
2023-05-17T11:16:00.797Z,13.5
2023-05-17T11:17:01.454Z,13.8
2023-05-17T11:18:01.092Z,13.7
2023-05-17T11:19:01.689Z,13.6
2023-05-17T11:20:01.425Z,13.6
2023-05-17T11:21:00.981Z,13.8
2023-05-17T11:22:01.472Z,13.9
2023-05-17T11:23:01.051Z,14.2
2023-05-17T11:24:01.632Z,14.4
2023-05-17T11:25:01.209Z,14.5
2023-05-17T11:26:09.245Z,14.7
2023-05-17T11:27:01.558Z,14.9
2023-05-17T11:28:01.034Z,14.8
2023-05-17T11:29:01.630Z,14.5
2023-05-17T11:30:01.216Z,14.7
2023-05-17T11:31:00.793Z,14.8
2023-05-17T11:32:01.410Z,15
2023-05-17T11:33:01.092Z,14.5
2023-05-17T11:34:01.607Z,14.3
2023-05-17T11:35:01.273Z,13.9
2023-05-17T11:36:00.807Z,13.7
2023-05-17T11:37:01.407Z,13.6
2023-05-17T11:38:01.016Z,13.4
2023-05-17T11:39:07.926Z,13.5
2023-05-17T11:40:01.122Z,13.7
2023-05-17T11:41:02.043Z,13.8
2023-05-17T11:42:01.188Z,13.9
2023-05-17T11:43:01.775Z,14.2
2023-05-17T11:44:01.360Z,14.5
2023-05-17T11:45:00.955Z,14.7
2023-05-17T11:46:01.523Z,14.8
2023-05-17T11:47:01.194Z,14.3
2023-05-17T11:48:01.771Z,14.2
2023-05-17T11:49:01.383Z,14.3
2023-05-17T11:50:00.927Z,14.5
2023-05-17T11:51:02.461Z,14.3
2023-05-17T11:52:01.196Z,14.2
2023-05-17T11:53:01.776Z,14.3
2023-05-17T11:54:01.361Z,14.5
2023-05-17T11:55:00.947Z,14.8
2023-05-17T11:56:01.536Z,14.5
2023-05-17T11:57:01.132Z,14.4
2023-05-17T11:58:01.741Z,14.7
2023-05-17T11:59:01.329Z,14.8
2023-05-17T12:00:00.906Z,15
2023-05-17T12:01:01.501Z,14.8
2023-05-17T12:02:01.105Z,15.1
2023-05-17T12:03:01.732Z,14.9
2023-05-17T12:04:01.379Z,14.7
2023-05-17T12:05:01.081Z,14.4
2023-05-17T12:06:01.522Z,14.2
2023-05-17T12:07:01.144Z,14
2023-05-17T12:08:01.726Z,13.9
2023-05-17T12:09:01.320Z,13.8
2023-05-17T12:10:00.924Z,13.8
2023-05-17T12:11:01.485Z,13.9
2023-05-17T12:12:01.065Z,14
2023-05-17T12:13:01.657Z,14.2
2023-05-17T12:14:01.237Z,14.1
2023-05-17T12:15:00.840Z,14.1
2023-05-17T12:16:01.428Z,14.3
2023-05-17T12:17:01.011Z,14.5
2023-05-17T12:18:01.653Z,15.1
2023-05-17T12:19:01.458Z,15.5
2023-05-17T12:20:00.873Z,15.6
2023-05-17T12:21:01.465Z,15.6
2023-05-17T12:22:01.052Z,15.2
2023-05-17T12:23:01.638Z,14.8
2023-05-17T12:24:01.233Z,14.8
2023-05-17T12:25:00.846Z,14.8
2023-05-17T12:26:01.481Z,14.8
2023-05-17T12:27:01.055Z,14.8
2023-05-17T12:28:01.642Z,14.6
2023-05-17T12:29:01.232Z,14.8
2023-05-17T12:30:00.811Z,14.8
2023-05-17T12:31:01.407Z,14.8
2023-05-17T12:32:00.993Z,14.8
2023-05-17T12:33:01.678Z,15
2023-05-17T12:34:01.280Z,15.1
2023-05-17T12:35:00.809Z,15.1
2023-05-17T12:36:01.409Z,15.1
2023-05-17T12:37:01.023Z,15.3
2023-05-17T12:38:01.579Z,15.4
2023-05-17T12:39:01.169Z,15.6
2023-05-17T12:40:01.740Z,15.6
2023-05-17T12:41:01.348Z,15.4
2023-05-17T12:42:00.938Z,15.3
2023-05-17T12:43:01.525Z,15.3
2023-05-17T12:44:13.448Z,15.3
2023-05-17T12:45:01.645Z,15.3
2023-05-17T12:46:03.015Z,15
2023-05-17T12:47:01.786Z,14.8
2023-05-17T12:48:01.457Z,14.8
2023-05-17T12:49:01.107Z,15
2023-05-17T12:50:01.636Z,15
2023-05-17T12:51:01.221Z,14.8
2023-05-17T12:52:00.801Z,15
2023-05-17T12:53:01.428Z,15.5
2023-05-17T12:54:01.012Z,15.4
2023-05-17T12:55:01.598Z,15.2
2023-05-17T12:56:01.181Z,15.2
2023-05-17T12:57:01.778Z,15
2023-05-17T12:58:01.361Z,15
2023-05-17T12:59:00.989Z,15
2023-05-17T13:00:01.577Z,14.6
2023-05-17T13:01:01.182Z,14.6
2023-05-17T13:02:01.784Z,14.6
2023-05-17T13:03:01.585Z,14.5
2023-05-17T13:04:01.052Z,14.4
2023-05-17T13:05:01.621Z,14.4
2023-05-17T13:06:01.214Z,14.5
2023-05-17T13:07:01.794Z,14.8
2023-05-17T13:08:01.393Z,15
2023-05-17T13:09:01.014Z,15.1
2023-05-17T13:10:01.574Z,15.1
2023-05-17T13:11:01.188Z,15.1
2023-05-17T13:12:01.745Z,14.9
2023-05-17T13:13:01.336Z,14.9
2023-05-17T13:14:00.925Z,14.9
2023-05-17T13:15:01.503Z,14.9
2023-05-17T13:16:01.107Z,14.5
2023-05-17T13:17:01.679Z,14.6
2023-05-17T13:18:01.390Z,14.7
2023-05-17T13:19:00.925Z,15.2
2023-05-17T13:20:01.567Z,15.5
2023-05-17T13:21:01.148Z,15.5
2023-05-17T13:22:01.729Z,15.4
2023-05-17T13:23:01.329Z,15
2023-05-17T13:24:00.908Z,14.8
2023-05-17T13:25:01.521Z,14.4
2023-05-17T13:26:01.110Z,14.3
2023-05-17T13:27:01.782Z,14.4
2023-05-17T13:28:01.365Z,14.5
2023-05-17T13:29:00.941Z,14.3
2023-05-17T13:30:01.532Z,14.4
2023-05-17T13:31:01.138Z,14.6
2023-05-17T13:32:01.745Z,14.7
2023-05-17T13:33:01.409Z,14.8
2023-05-17T13:34:01.061Z,15
2023-05-17T13:35:01.550Z,15.1
2023-05-17T13:36:01.132Z,15.5
2023-05-17T13:37:01.720Z,15.7